This demonstration page uses our WeatherBlox Daily Observations layout. Learn more.

39.08367, -84.50855

Hourly Observations for July 13, 2019

Temp ( °F °C ) Dew Point ( °F °C ) Humidity (%) Winds ( mph kmh ) Pressure ( in mb ) Visibility ( mi km ) Precip ( " mm )
12:53 am 00:53 Clear 65 18.3 60 15.6 84 84 Calm 29.94 1014 10 16.09344 0 0
1:53 am 01:53 Clear 64 17.8 61 16.1 90 90 Calm 29.97 1015 10 16.09344 0 0
2:53 am 02:53 Clear 63 17.2 61 16.1 93 93 Calm 29.97 1015 10 16.09344 0 0
3:53 am 03:53 Clear 62 16.7 61 16.1 96 96 Calm 30 1016 9 14.484096 0 0
4:53 am 04:53 Clear 61 16.1 60 15.6 97 97 Calm 30 1016 9 14.484096 0 0
5:53 am 05:53 Clear 61 16.1 59 15 93 93 E 3 6 30 1016 9 14.484096 0 0
6:53 am 06:53 Sunny 61 16.1 60 15.6 97 97 Calm 30.03 1017 10 16.09344 0 0
7:53 am 07:53 Sunny 65 18.3 62 16.7 90 90 Calm 30.03 1017 10 16.09344 0 0
8:53 am 08:53 Sunny 71 21.7 63 17.2 76 76 Calm 30.03 1017 10 16.09344 0 0
9:53 am 09:53 Sunny 76 24.4 63 17.2 64 64 Calm 30.03 1017 10 16.09344 0 0
10:53 am 10:53 Sunny 80 26.7 59 15 49 49 Calm 30.03 1017 10 16.09344 0 0
11:53 am 11:53 Sunny 83 28.3 57 13.9 41 41 ESE 5 7 30.03 1017 10 16.09344 0 0
12:53 pm 12:53 Sunny 84 28.9 59 15 43 43 S 6 9 30.03 1017 10 16.09344 0 0
1:53 pm 13:53 Sunny 86 30 60 15.6 42 42 S 8 13 30.03 1017 10 16.09344 0 0
2:53 pm 14:53 Sunny 88 31.1 61 16.1 40 40 S 6 9 30 1016 10 16.09344 0 0
3:53 pm 15:53 Sunny 88 31.1 61 16.1 40 40 VRB 5 7 30 1016 10 16.09344 0 0
4:53 pm 16:53 Sunny 89 31.7 57 13.9 34 34 VRB 7 11 30 1016 10 16.09344 0 0
5:53 pm 17:53 Sunny 90 32.2 58 14.4 34 34 W 5 7 30 1016 10 16.09344 0 0
6:53 pm 18:53 Sunny 89 31.7 60 15.6 38 38 NW 5 7 29.97 1015 10 16.09344 0 0
7:53 pm 19:53 Sunny 88 31.1 59 15 38 38 VRB 6 9 29.97 1015 10 16.09344 0 0
8:53 pm 20:53 Sunny 77 25 67 19.4 71 71 SSE 3 6 30 1016 10 16.09344 0 0
9:53 pm 21:53 Clear 74 23.3 66 18.9 76 76 Calm 30 1016 10 16.09344 0 0
10:53 pm 22:53 Clear 71 21.7 66 18.9 84 84 Calm 30.03 1017 10 16.09344 0 0
11:53 pm 23:53 Clear 69 20.6 65 18.3 87 87 Calm 30.03 1017 10 16.09344 0 0

Powered by AerisWeather